sensor_id;sensor_type;location;lat;lon;timestamp;pressure;altitude;pressure_sealevel;temperature;humidity
28628;BME280;15815;46.760;19.604;2022-07-29T00:02:01;100281.38;;;22.70;59.66
28628;BME280;15815;46.760;19.604;2022-07-29T00:04:26;100284.44;;;22.67;60.91
28628;BME280;15815;46.760;19.604;2022-07-29T00:06:51;100291.44;;;22.66;58.96
28628;BME280;15815;46.760;19.604;2022-07-29T00:09:17;100292.53;;;22.68;58.36
28628;BME280;15815;46.760;19.604;2022-07-29T00:11:42;100301.13;;;22.68;58.29
28628;BME280;15815;46.760;19.604;2022-07-29T00:14:09;100295.88;;;22.67;57.50
28628;BME280;15815;46.760;19.604;2022-07-29T00:16:34;100285.09;;;22.62;56.67
28628;BME280;15815;46.760;19.604;2022-07-29T00:18:59;100274.03;;;22.55;56.88
28628;BME280;15815;46.760;19.604;2022-07-29T00:21:25;100289.63;;;22.54;56.41
28628;BME280;15815;46.760;19.604;2022-07-29T00:23:50;100293.59;;;22.56;56.32
28628;BME280;15815;46.760;19.604;2022-07-29T00:26:16;100287.66;;;22.60;55.93
28628;BME280;15815;46.760;19.604;2022-07-29T00:28:41;100282.72;;;22.60;55.99
28628;BME280;15815;46.760;19.604;2022-07-29T00:31:07;100282.53;;;22.64;55.19
28628;BME280;15815;46.760;19.604;2022-07-29T00:33:33;100283.81;;;22.63;54.76
28628;BME280;15815;46.760;19.604;2022-07-29T00:35:58;100280.66;;;22.61;54.88
28628;BME280;15815;46.760;19.604;2022-07-29T00:38:23;100282.91;;;22.57;55.06
28628;BME280;15815;46.760;19.604;2022-07-29T00:40:49;100269.59;;;22.54;55.22
28628;BME280;15815;46.760;19.604;2022-07-29T00:43:14;100275.00;;;22.51;55.22
28628;BME280;15815;46.760;19.604;2022-07-29T00:45:41;100277.19;;;22.57;55.02
28628;BME280;15815;46.760;19.604;2022-07-29T00:48:07;100284.50;;;22.58;55.04
28628;BME280;15815;46.760;19.604;2022-07-29T00:50:34;100275.91;;;22.58;55.87
28628;BME280;15815;46.760;19.604;2022-07-29T00:53:00;100272.84;;;22.61;55.84
28628;BME280;15815;46.760;19.604;2022-07-29T00:55:26;100274.25;;;22.66;56.09
28628;BME280;15815;46.760;19.604;2022-07-29T00:57:52;100268.81;;;22.68;55.54
28628;BME280;15815;46.760;19.604;2022-07-29T01:00:21;100270.91;;;22.67;56.03
28628;BME280;15815;46.760;19.604;2022-07-29T01:02:47;100271.69;;;22.68;55.63
28628;BME280;15815;46.760;19.604;2022-07-29T01:05:14;100270.91;;;22.67;55.24
28628;BME280;15815;46.760;19.604;2022-07-29T01:07:41;100262.59;;;22.69;55.15
28628;BME280;15815;46.760;19.604;2022-07-29T01:10:09;100260.81;;;22.72;55.53
28628;BME280;15815;46.760;19.604;2022-07-29T01:12:35;100256.38;;;22.71;55.53
28628;BME280;15815;46.760;19.604;2022-07-29T01:15:03;100266.25;;;22.70;55.48
28628;BME280;15815;46.760;19.604;2022-07-29T01:17:36;100256.88;;;22.69;55.03
28628;BME280;15815;46.760;19.604;2022-07-29T01:25:40;100258.88;;;22.78;55.30
28628;BME280;15815;46.760;19.604;2022-07-29T01:30:56;100249.78;;;22.79;54.92
28628;BME280;15815;46.760;19.604;2022-07-29T01:33:25;100255.06;;;22.81;54.75
28628;BME280;15815;46.760;19.604;2022-07-29T01:36:13;100252.50;;;22.83;54.43
28628;BME280;15815;46.760;19.604;2022-07-29T01:38:41;100255.66;;;22.85;54.46
28628;BME280;15815;46.760;19.604;2022-07-29T01:41:14;100257.53;;;22.88;54.76
28628;BME280;15815;46.760;19.604;2022-07-29T01:43:56;100256.25;;;22.89;54.29
28628;BME280;15815;46.760;19.604;2022-07-29T01:46:31;100254.69;;;22.88;55.10
28628;BME280;15815;46.760;19.604;2022-07-29T01:49:21;100241.63;;;22.87;54.78
28628;BME280;15815;46.760;19.604;2022-07-29T01:51:57;100257.25;;;22.86;54.30
28628;BME280;15815;46.760;19.604;2022-07-29T01:57:03;100251.22;;;22.84;54.83
28628;BME280;15815;46.760;19.604;2022-07-29T01:59:30;100245.50;;;22.84;54.43
28628;BME280;15815;46.760;19.604;2022-07-29T02:01:57;100244.69;;;22.84;54.66
28628;BME280;15815;46.760;19.604;2022-07-29T02:04:24;100246.78;;;22.83;54.61
28628;BME280;15815;46.760;19.604;2022-07-29T02:06:52;100249.63;;;22.83;54.25
28628;BME280;15815;46.760;19.604;2022-07-29T02:09:20;100242.31;;;22.82;54.64
28628;BME280;15815;46.760;19.604;2022-07-29T02:11:52;100233.41;;;22.80;54.93
28628;BME280;15815;46.760;19.604;2022-07-29T02:14:20;100240.13;;;22.77;55.41
28628;BME280;15815;46.760;19.604;2022-07-29T02:16:47;100242.34;;;22.73;54.95
28628;BME280;15815;46.760;19.604;2022-07-29T02:19:17;100250.84;;;22.67;54.63
28628;BME280;15815;46.760;19.604;2022-07-29T02:21:44;100249.16;;;22.61;54.69
28628;BME280;15815;46.760;19.604;2022-07-29T02:24:11;100245.38;;;22.55;54.62
28628;BME280;15815;46.760;19.604;2022-07-29T02:26:37;100245.38;;;22.55;54.74
28628;BME280;15815;46.760;19.604;2022-07-29T02:29:06;100243.81;;;22.54;55.01
28628;BME280;15815;46.760;19.604;2022-07-29T02:31:34;100241.44;;;22.52;54.80
28628;BME280;15815;46.760;19.604;2022-07-29T02:34:03;100244.78;;;22.50;54.85
28628;BME280;15815;46.760;19.604;2022-07-29T02:36:31;100247.34;;;22.48;55.07
28628;BME280;15815;46.760;19.604;2022-07-29T02:38:57;100251.50;;;22.47;55.03
28628;BME280;15815;46.760;19.604;2022-07-29T02:41:54;100247.34;;;22.48;54.88
28628;BME280;15815;46.760;19.604;2022-07-29T02:44:23;100235.91;;;22.48;55.11
28628;BME280;15815;46.760;19.604;2022-07-29T02:46:52;100243.19;;;22.49;54.87
28628;BME280;15815;46.760;19.604;2022-07-29T02:49:30;100244.19;;;22.46;55.04
28628;BME280;15815;46.760;19.604;2022-07-29T02:52:02;100243.84;;;22.44;55.44
28628;BME280;15815;46.760;19.604;2022-07-29T02:55:06;100241.47;;;22.43;55.28
28628;BME280;15815;46.760;19.604;2022-07-29T02:57:43;100253.13;;;22.39;55.68
28628;BME280;15815;46.760;19.604;2022-07-29T03:00:10;100241.38;;;22.37;55.44
28628;BME280;15815;46.760;19.604;2022-07-29T03:02:40;100246.50;;;22.33;55.67
28628;BME280;15815;46.760;19.604;2022-07-29T03:05:08;100253.50;;;22.32;55.62
28628;BME280;15815;46.760;19.604;2022-07-29T03:07:35;100248.44;;;22.27;55.97
28628;BME280;15815;46.760;19.604;2022-07-29T03:10:03;100248.44;;;22.27;56.27
28628;BME280;15815;46.760;19.604;2022-07-29T03:14:55;100262.94;;;22.24;56.12
28628;BME280;15815;46.760;19.604;2022-07-29T03:17:21;100246.25;;;22.22;56.30
28628;BME280;15815;46.760;19.604;2022-07-29T03:19:47;100259.59;;;22.25;56.42
28628;BME280;15815;46.760;19.604;2022-07-29T03:22:13;100252.59;;;22.26;56.82
28628;BME280;15815;46.760;19.604;2022-07-29T03:24:39;100257.03;;;22.27;56.67
28628;BME280;15815;46.760;19.604;2022-07-29T03:27:04;100253.88;;;22.25;56.88
28628;BME280;15815;46.760;19.604;2022-07-29T03:29:31;100255.16;;;22.24;56.67
28628;BME280;15815;46.760;19.604;2022-07-29T03:31:56;100252.28;;;22.24;56.70
28628;BME280;15815;46.760;19.604;2022-07-29T03:34:21;100255.16;;;22.24;56.45
28628;BME280;15815;46.760;19.604;2022-07-29T03:36:47;100252.97;;;22.19;56.59
28628;BME280;15815;46.760;19.604;2022-07-29T03:39:17;100256.47;;;22.14;56.83
28628;BME280;15815;46.760;19.604;2022-07-29T03:41:45;100250.75;;;22.14;57.22
28628;BME280;15815;46.760;19.604;2022-07-29T03:44:12;100245.81;;;22.14;57.42
28628;BME280;15815;46.760;19.604;2022-07-29T03:46:39;100249.47;;;22.15;57.48
28628;BME280;15815;46.760;19.604;2022-07-29T03:49:08;100245.31;;;22.16;57.35
28628;BME280;15815;46.760;19.604;2022-07-29T03:51:34;100250.56;;;22.17;57.38
28628;BME280;15815;46.760;19.604;2022-07-29T03:54:03;100250.88;;;22.19;57.71
28628;BME280;15815;46.760;19.604;2022-07-29T03:56:30;100254.06;;;22.22;57.78
28628;BME280;15815;46.760;19.604;2022-07-29T03:58:58;100249.91;;;22.23;57.81
28628;BME280;15815;46.760;19.604;2022-07-29T04:01:24;100254.34;;;22.24;57.88
28628;BME280;15815;46.760;19.604;2022-07-29T04:03:51;100250.03;;;22.28;58.09
28628;BME280;15815;46.760;19.604;2022-07-29T04:06:16;100253.00;;;22.34;57.88
28628;BME280;15815;46.760;19.604;2022-07-29T04:08:42;100256.47;;;22.38;58.04
28628;BME280;15815;46.760;19.604;2022-07-29T04:11:07;100257.88;;;22.42;58.01
28628;BME280;15815;46.760;19.604;2022-07-29T04:13:32;100261.81;;;22.45;58.33
28628;BME280;15815;46.760;19.604;2022-07-29T04:15:58;100253.69;;;22.52;58.11
28628;BME280;15815;46.760;19.604;2022-07-29T04:18:24;100245.19;;;22.58;58.09
28628;BME280;15815;46.760;19.604;2022-07-29T04:20:49;100250.53;;;22.65;57.81
28628;BME280;15815;46.760;19.604;2022-07-29T04:23:15;100248.56;;;22.71;57.80
28628;BME280;15815;46.760;19.604;2022-07-29T04:25:41;100250.59;;;22.80;57.91
28628;BME280;15815;46.760;19.604;2022-07-29T04:28:07;100256.94;;;22.84;57.77
28628;BME280;15815;46.760;19.604;2022-07-29T04:30:33;100254.38;;;22.86;57.73
28628;BME280;15815;46.760;19.604;2022-07-29T04:33:03;100261.41;;;22.85;57.74
28628;BME280;15815;46.760;19.604;2022-07-29T04:35:30;100254.88;;;22.85;58.07
28628;BME280;15815;46.760;19.604;2022-07-29T04:37:55;100263.78;;;22.87;58.02
28628;BME280;15815;46.760;19.604;2022-07-29T04:40:21;100264.56;;;22.87;58.25
28628;BME280;15815;46.760;19.604;2022-07-29T04:42:46;100263.97;;;22.83;58.25
28628;BME280;15815;46.760;19.604;2022-07-29T04:45:11;100272.25;;;22.81;58.34
28628;BME280;15815;46.760;19.604;2022-07-29T04:47:37;100260.81;;;22.81;58.34
28628;BME280;15815;46.760;19.604;2022-07-29T04:50:03;100260.81;;;22.81;58.43
28628;BME280;15815;46.760;19.604;2022-07-29T04:52:28;100267.13;;;22.85;58.76
28628;BME280;15815;46.760;19.604;2022-07-29T04:54:54;100265.66;;;22.90;58.42
28628;BME280;15815;46.760;19.604;2022-07-29T04:57:19;100266.44;;;22.90;58.48
28628;BME280;15815;46.760;19.604;2022-07-29T04:59:44;100267.81;;;22.95;58.16
28628;BME280;15815;46.760;19.604;2022-07-29T05:02:10;100270.00;;;23.00;58.47
28628;BME280;15815;46.760;19.604;2022-07-29T05:04:35;100265.19;;;23.06;58.32
28628;BME280;15815;46.760;19.604;2022-07-29T05:07:00;100268.06;;;23.06;58.20
28628;BME280;15815;46.760;19.604;2022-07-29T05:09:26;100269.75;;;23.12;58.10
28628;BME280;15815;46.760;19.604;2022-07-29T05:11:51;100267.25;;;23.20;58.10
28628;BME280;15815;46.760;19.604;2022-07-29T05:14:17;100275.09;;;23.34;57.78
28628;BME280;15815;46.760;19.604;2022-07-29T05:16:42;100275.19;;;23.40;57.31
28628;BME280;15815;46.760;19.604;2022-07-29T05:19:08;100270.84;;;23.44;57.53
28628;BME280;15815;46.760;19.604;2022-07-29T05:21:34;100279.81;;;23.52;57.57
28628;BME280;15815;46.760;19.604;2022-07-29T05:23:59;100281.16;;;23.66;56.67
28628;BME280;15815;46.760;19.604;2022-07-29T05:26:24;100281.13;;;23.81;56.82
28628;BME280;15815;46.760;19.604;2022-07-29T05:28:50;100276.16;;;23.96;55.91
28628;BME280;15815;46.760;19.604;2022-07-29T05:31:15;100281.53;;;24.09;55.52
28628;BME280;15815;46.760;19.604;2022-07-29T05:33:41;100290.56;;;24.16;55.55
28628;BME280;15815;46.760;19.604;2022-07-29T05:36:07;100279.34;;;24.18;55.18
28628;BME280;15815;46.760;19.604;2022-07-29T05:38:33;100278.06;;;24.19;55.65
28628;BME280;15815;46.760;19.604;2022-07-29T05:40:59;100280.69;;;24.38;55.25
28628;BME280;15815;46.760;19.604;2022-07-29T05:43:26;100279.34;;;24.53;55.11
28628;BME280;15815;46.760;19.604;2022-07-29T05:45:52;100278.13;;;24.60;55.13
28628;BME280;15815;46.760;19.604;2022-07-29T05:48:17;100274.44;;;24.80;54.89
28628;BME280;15815;46.760;19.604;2022-07-29T05:50:43;100283.16;;;25.06;54.32
28628;BME280;15815;46.760;19.604;2022-07-29T05:53:08;100284.97;;;25.29;53.15
28628;BME280;15815;46.760;19.604;2022-07-29T05:55:33;100288.50;;;25.44;52.31
28628;BME280;15815;46.760;19.604;2022-07-29T05:57:59;100285.75;;;25.55;52.22
28628;BME280;15815;46.760;19.604;2022-07-29T06:00:24;100286.41;;;25.71;52.05
28628;BME280;15815;46.760;19.604;2022-07-29T06:02:49;100283.41;;;25.85;51.68
28628;BME280;15815;46.760;19.604;2022-07-29T06:05:15;100288.28;;;26.05;50.71
28628;BME280;15815;46.760;19.604;2022-07-29T06:07:40;100295.47;;;26.27;50.75
28628;BME280;15815;46.760;19.604;2022-07-29T06:10:06;100285.88;;;26.41;50.29
28628;BME280;15815;46.760;19.604;2022-07-29T06:12:31;100283.84;;;26.53;50.46
28628;BME280;15815;46.760;19.604;2022-07-29T06:14:56;100291.19;;;26.54;49.16
28628;BME280;15815;46.760;19.604;2022-07-29T06:17:22;100299.31;;;26.55;49.38
28628;BME280;15815;46.760;19.604;2022-07-29T06:19:48;100293.09;;;26.68;49.21
28628;BME280;15815;46.760;19.604;2022-07-29T06:22:15;100297.41;;;26.95;49.41
28628;BME280;15815;46.760;19.604;2022-07-29T06:24:41;100303.81;;;27.21;48.02
28628;BME280;15815;46.760;19.604;2022-07-29T06:27:09;100297.56;;;27.39;47.02
28628;BME280;15815;46.760;19.604;2022-07-29T06:29:34;100301.28;;;27.68;46.66
28628;BME280;15815;46.760;19.604;2022-07-29T06:32:00;100304.91;;;28.19;46.53
28628;BME280;15815;46.760;19.604;2022-07-29T06:34:25;100301.53;;;29.01;43.81
28628;BME280;15815;46.760;19.604;2022-07-29T06:36:51;100300.19;;;29.90;42.09
28628;BME280;15815;46.760;19.604;2022-07-29T06:39:17;100300.91;;;29.96;41.76
28628;BME280;15815;46.760;19.604;2022-07-29T06:41:46;100307.78;;;30.96;40.46
28628;BME280;15815;46.760;19.604;2022-07-29T06:44:12;100302.50;;;32.02;38.65
28628;BME280;15815;46.760;19.604;2022-07-29T06:46:37;100307.84;;;31.97;38.08
28628;BME280;15815;46.760;19.604;2022-07-29T06:49:03;100305.00;;;32.11;37.48
28628;BME280;15815;46.760;19.604;2022-07-29T06:51:29;100306.84;;;32.40;37.10
28628;BME280;15815;46.760;19.604;2022-07-29T06:53:54;100309.22;;;32.42;36.73
28628;BME280;15815;46.760;19.604;2022-07-29T06:56:19;100299.66;;;32.28;36.43
28628;BME280;15815;46.760;19.604;2022-07-29T06:58:45;100306.63;;;31.93;37.42
28628;BME280;15815;46.760;19.604;2022-07-29T07:01:10;100302.72;;;32.49;37.14
28628;BME280;15815;46.760;19.604;2022-07-29T07:03:36;100297.19;;;33.11;37.13
28628;BME280;15815;46.760;19.604;2022-07-29T07:06:01;100301.88;;;33.62;35.03
28628;BME280;15815;46.760;19.604;2022-07-29T07:08:27;100294.47;;;33.61;34.56
28628;BME280;15815;46.760;19.604;2022-07-29T07:10:53;100305.09;;;32.90;36.43
28628;BME280;15815;46.760;19.604;2022-07-29T07:13:22;100301.38;;;32.50;36.90
28628;BME280;15815;46.760;19.604;2022-07-29T07:15:51;100304.75;;;31.26;38.54
28628;BME280;15815;46.760;19.604;2022-07-29T07:18:18;100305.91;;;30.98;39.75
28628;BME280;15815;46.760;19.604;2022-07-29T07:20:44;100298.31;;;30.47;40.12
28628;BME280;15815;46.760;19.604;2022-07-29T07:23:10;100304.13;;;30.47;41.41
28628;BME280;15815;46.760;19.604;2022-07-29T07:25:35;100306.00;;;30.20;41.99
28628;BME280;15815;46.760;19.604;2022-07-29T07:28:01;100300.63;;;29.99;41.76
28628;BME280;15815;46.760;19.604;2022-07-29T07:30:27;100304.50;;;29.77;42.96
28628;BME280;15815;46.760;19.604;2022-07-29T07:32:53;100296.97;;;29.63;42.26
28628;BME280;15815;46.760;19.604;2022-07-29T07:35:18;100294.03;;;29.69;43.01
28628;BME280;15815;46.760;19.604;2022-07-29T07:37:44;100297.47;;;29.67;43.18
28628;BME280;15815;46.760;19.604;2022-07-29T07:40:10;100302.91;;;29.76;42.77
28628;BME280;15815;46.760;19.604;2022-07-29T07:42:40;100300.28;;;29.78;42.86
28628;BME280;15815;46.760;19.604;2022-07-29T07:45:06;100304.53;;;29.72;42.76
28628;BME280;15815;46.760;19.604;2022-07-29T07:47:34;100302.72;;;29.69;43.53
28628;BME280;15815;46.760;19.604;2022-07-29T07:49:59;100299.28;;;29.70;42.41
28628;BME280;15815;46.760;19.604;2022-07-29T07:52:25;100308.22;;;29.72;42.75
28628;BME280;15815;46.760;19.604;2022-07-29T07:54:50;100300.84;;;29.71;42.43
28628;BME280;15815;46.760;19.604;2022-07-29T07:57:16;100299.94;;;29.88;42.48
28628;BME280;15815;46.760;19.604;2022-07-29T07:59:42;100309.78;;;30.09;43.26
28628;BME280;15815;46.760;19.604;2022-07-29T08:02:08;100305.94;;;30.25;42.37
28628;BME280;15815;46.760;19.604;2022-07-29T08:04:34;100298.91;;;30.39;42.36
28628;BME280;15815;46.760;19.604;2022-07-29T08:06:59;100306.78;;;30.44;41.33
28628;BME280;15815;46.760;19.604;2022-07-29T08:09:26;100302.97;;;30.55;42.27
28628;BME280;15815;46.760;19.604;2022-07-29T08:11:52;100307.94;;;30.60;41.50
28628;BME280;15815;46.760;19.604;2022-07-29T08:14:17;100305.47;;;30.70;41.24
28628;BME280;15815;46.760;19.604;2022-07-29T08:16:43;100312.47;;;30.80;40.93
28628;BME280;15815;46.760;19.604;2022-07-29T08:19:08;100312.53;;;30.93;41.12
28628;BME280;15815;46.760;19.604;2022-07-29T08:21:34;100305.50;;;31.08;40.68
28628;BME280;15815;46.760;19.604;2022-07-29T08:24:00;100300.72;;;31.10;40.90
28628;BME280;15815;46.760;19.604;2022-07-29T08:26:44;100306.84;;;31.06;40.84
28628;BME280;15815;46.760;19.604;2022-07-29T08:29:10;100296.69;;;30.94;39.93
28628;BME280;15815;46.760;19.604;2022-07-29T08:31:36;100295.63;;;30.97;39.26
28628;BME280;15815;46.760;19.604;2022-07-29T08:34:03;100308.56;;;30.96;40.86
28628;BME280;15815;46.760;19.604;2022-07-29T08:36:29;100305.34;;;31.00;40.37
28628;BME280;15815;46.760;19.604;2022-07-29T08:38:54;100302.06;;;31.09;40.03
28628;BME280;15815;46.760;19.604;2022-07-29T08:41:20;100302.53;;;31.13;40.49
28628;BME280;15815;46.760;19.604;2022-07-29T08:43:47;100302.53;;;31.13;40.20
28628;BME280;15815;46.760;19.604;2022-07-29T08:46:12;100299.06;;;31.15;38.80
28628;BME280;15815;46.760;19.604;2022-07-29T08:48:40;100304.53;;;31.24;40.34
28628;BME280;15815;46.760;19.604;2022-07-29T08:51:07;100305.00;;;31.28;39.02
28628;BME280;15815;46.760;19.604;2022-07-29T08:53:32;100306.00;;;31.30;37.55
28628;BME280;15815;46.760;19.604;2022-07-29T08:55:58;100305.38;;;31.19;38.02
28628;BME280;15815;46.760;19.604;2022-07-29T08:58:25;100299.06;;;31.15;37.32
28628;BME280;15815;46.760;19.604;2022-07-29T09:00:54;100300.91;;;31.18;38.26
28628;BME280;15815;46.760;19.604;2022-07-29T09:03:24;100299.00;;;31.20;37.86
28628;BME280;15815;46.760;19.604;2022-07-29T09:05:50;100304.75;;;31.26;39.11
28628;BME280;15815;46.760;19.604;2022-07-29T09:08:16;100294.72;;;31.27;36.97
28628;BME280;15815;46.760;19.604;2022-07-29T09:10:43;100290.06;;;31.37;37.55
28628;BME280;15815;46.760;19.604;2022-07-29T09:13:09;100298.91;;;31.45;36.09
28628;BME280;15815;46.760;19.604;2022-07-29T09:15:34;100288.09;;;31.45;35.75
28628;BME280;15815;46.760;19.604;2022-07-29T09:18:00;100295.19;;;31.31;35.42
28628;BME280;15815;46.760;19.604;2022-07-29T09:20:26;100293.16;;;31.26;35.74
28628;BME280;15815;46.760;19.604;2022-07-29T09:23:11;100295.09;;;31.18;36.68
28628;BME280;15815;46.760;19.604;2022-07-29T09:25:39;100286.22;;;31.10;36.83
28628;BME280;15815;46.760;19.604;2022-07-29T09:28:13;100284.03;;;31.16;36.80
28628;BME280;15815;46.760;19.604;2022-07-29T09:33:17;100274.31;;;31.32;38.02
28628;BME280;15815;46.760;19.604;2022-07-29T09:35:43;100278.81;;;31.47;36.17
28628;BME280;15815;46.760;19.604;2022-07-29T09:38:12;100276.53;;;31.58;36.54
28628;BME280;15815;46.760;19.604;2022-07-29T09:40:38;100281.47;;;31.63;36.76
28628;BME280;15815;46.760;19.604;2022-07-29T09:43:11;100280.13;;;31.64;36.54
28628;BME280;15815;46.760;19.604;2022-07-29T09:45:38;100277.22;;;31.64;35.66
28628;BME280;15815;46.760;19.604;2022-07-29T09:48:17;100271.06;;;31.55;35.76
28628;BME280;15815;46.760;19.604;2022-07-29T09:50:45;100276.53;;;31.58;36.33
28628;BME280;15815;46.760;19.604;2022-07-29T09:53:12;100270.97;;;31.60;36.45
28628;BME280;15815;46.760;19.604;2022-07-29T09:55:54;100264.81;;;31.64;35.45
28628;BME280;15815;46.760;19.604;2022-07-29T09:58:21;100254.44;;;31.68;35.99
28628;BME280;15815;46.760;19.604;2022-07-29T10:00:48;100259.38;;;31.74;36.33
28628;BME280;15815;46.760;19.604;2022-07-29T10:03:15;100251.69;;;31.76;36.64
28628;BME280;15815;46.760;19.604;2022-07-29T10:05:41;100249.72;;;31.84;36.23
28628;BME280;15815;46.760;19.604;2022-07-29T10:08:07;100250.72;;;31.87;34.24
28628;BME280;15815;46.760;19.604;2022-07-29T10:10:36;100241.00;;;31.84;34.73
28628;BME280;15815;46.760;19.604;2022-07-29T10:13:04;100246.94;;;31.92;34.95
28628;BME280;15815;46.760;19.604;2022-07-29T10:15:32;100243.34;;;31.99;35.12
28628;BME280;15815;46.760;19.604;2022-07-29T10:17:59;100240.09;;;32.03;35.24
28628;BME280;15815;46.760;19.604;2022-07-29T10:20:26;100246.16;;;32.05;34.58
28628;BME280;15815;46.760;19.604;2022-07-29T10:22:52;100235.97;;;31.98;35.25
28628;BME280;15815;46.760;19.604;2022-07-29T10:25:19;100228.47;;;32.03;35.13
28628;BME280;15815;46.760;19.604;2022-07-29T10:27:46;100224.94;;;32.10;35.13
28628;BME280;15815;46.760;19.604;2022-07-29T10:30:14;100235.09;;;32.16;33.74
28628;BME280;15815;46.760;19.604;2022-07-29T10:35:45;100228.84;;;32.12;32.60
28628;BME280;15815;46.760;19.604;2022-07-29T10:41:02;100220.00;;;32.18;35.38
28628;BME280;15815;46.760;19.604;2022-07-29T10:43:53;100222.50;;;32.27;34.95
28628;BME280;15815;46.760;19.604;2022-07-29T10:46:19;100213.44;;;32.31;34.80
28628;BME280;15815;46.760;19.604;2022-07-29T10:49:08;100211.00;;;32.35;34.80
28628;BME280;15815;46.760;19.604;2022-07-29T10:52:03;100214.22;;;32.31;34.10
28628;BME280;15815;46.760;19.604;2022-07-29T10:59:42;100214.31;;;32.52;34.35
28628;BME280;15815;46.760;19.604;2022-07-29T11:05:05;100207.16;;;32.66;34.13
28628;BME280;15815;46.760;19.604;2022-07-29T11:07:32;100208.44;;;32.78;33.32
28628;BME280;15815;46.760;19.604;2022-07-29T11:15:04;100200.06;;;32.88;34.46
28628;BME280;15815;46.760;19.604;2022-07-29T11:23:36;100185.19;;;33.12;34.01
28628;BME280;15815;46.760;19.604;2022-07-29T11:28:39;100188.66;;;33.11;33.93
28628;BME280;15815;46.760;19.604;2022-07-29T11:31:13;100185.91;;;33.05;33.74
28628;BME280;15815;46.760;19.604;2022-07-29T11:33:38;100185.19;;;32.92;33.41
28628;BME280;15815;46.760;19.604;2022-07-29T11:36:14;100182.06;;;32.90;34.11
28628;BME280;15815;46.760;19.604;2022-07-29T11:38:40;100178.56;;;32.91;34.25
28628;BME280;15815;46.760;19.604;2022-07-29T11:41:26;100178.00;;;32.93;34.36
28628;BME280;15815;46.760;19.604;2022-07-29T11:49:12;100180.06;;;33.05;35.52
28628;BME280;15815;46.760;19.604;2022-07-29T11:51:38;100174.31;;;33.13;34.78
28628;BME280;15815;46.760;19.604;2022-07-29T11:54:05;100177.81;;;33.11;34.22
28628;BME280;15815;46.760;19.604;2022-07-29T11:56:34;100165.38;;;33.11;35.54
28628;BME280;15815;46.760;19.604;2022-07-29T11:59:07;100161.81;;;33.05;34.51
28628;BME280;15815;46.760;19.604;2022-07-29T12:01:34;100162.97;;;33.02;34.70
28628;BME280;15815;46.760;19.604;2022-07-29T12:04:06;100159.41;;;32.96;34.30
28628;BME280;15815;46.760;19.604;2022-07-29T12:06:33;100159.84;;;33.00;34.83
28628;BME280;15815;46.760;19.604;2022-07-29T12:08:59;100156.44;;;33.09;35.04
28628;BME280;15815;46.760;19.604;2022-07-29T12:11:25;100153.50;;;33.09;34.06
28628;BME280;15815;46.760;19.604;2022-07-29T12:13:51;100146.75;;;33.14;34.50
28628;BME280;15815;46.760;19.604;2022-07-29T12:16:16;100145.31;;;33.21;34.40
28628;BME280;15815;46.760;19.604;2022-07-29T12:18:42;100136.41;;;33.26;33.88
28628;BME280;15815;46.760;19.604;2022-07-29T12:21:07;100144.25;;;33.31;33.72
28628;BME280;15815;46.760;19.604;2022-07-29T12:23:33;100140.53;;;33.31;34.17
28628;BME280;15815;46.760;19.604;2022-07-29T12:25:59;100136.00;;;33.22;33.80
28628;BME280;15815;46.760;19.604;2022-07-29T12:28:25;100135.56;;;33.18;34.01
28628;BME280;15815;46.760;19.604;2022-07-29T12:30:51;100140.47;;;33.23;34.28
28628;BME280;15815;46.760;19.604;2022-07-29T12:35:49;100144.50;;;33.20;33.98
28628;BME280;15815;46.760;19.604;2022-07-29T12:38:15;100141.59;;;33.20;33.78
28628;BME280;15815;46.760;19.604;2022-07-29T12:40:41;100132.22;;;33.14;33.30
28628;BME280;15815;46.760;19.604;2022-07-29T12:43:09;100135.84;;;33.07;33.63
28628;BME280;15815;46.760;19.604;2022-07-29T12:45:39;100133.19;;;32.96;33.64
28628;BME280;15815;46.760;19.604;2022-07-29T12:48:06;100128.09;;;32.88;35.54
28628;BME280;15815;46.760;19.604;2022-07-29T12:50:34;100119.25;;;32.81;33.46
28628;BME280;15815;46.760;19.604;2022-07-29T12:53:11;100117.13;;;32.81;33.61
28628;BME280;15815;46.760;19.604;2022-07-29T12:55:45;100122.16;;;32.81;34.42
28628;BME280;15815;46.760;19.604;2022-07-29T12:58:25;100114.88;;;32.87;33.87
28628;BME280;15815;46.760;19.604;2022-07-29T13:01:01;100110.28;;;32.92;34.73
28628;BME280;15815;46.760;19.604;2022-07-29T13:03:27;100099.63;;;32.95;34.13
28628;BME280;15815;46.760;19.604;2022-07-29T13:05:53;100116.38;;;33.02;33.32
28628;BME280;15815;46.760;19.604;2022-07-29T13:08:18;100107.22;;;32.98;33.37
28628;BME280;15815;46.760;19.604;2022-07-29T13:10:45;100099.41;;;32.93;33.79
28628;BME280;15815;46.760;19.604;2022-07-29T13:13:13;100099.63;;;32.95;32.86
28628;BME280;15815;46.760;19.604;2022-07-29T13:15:41;100087.75;;;32.93;33.30
28628;BME280;15815;46.760;19.604;2022-07-29T13:18:29;100078.47;;;32.94;32.88
28628;BME280;15815;46.760;19.604;2022-07-29T13:20:56;100085.28;;;32.97;33.58
28628;BME280;15815;46.760;19.604;2022-07-29T13:23:22;100074.78;;;32.94;32.75
28628;BME280;15815;46.760;19.604;2022-07-29T13:25:47;100070.88;;;32.91;33.84
28628;BME280;15815;46.760;19.604;2022-07-29T13:28:13;100071.66;;;32.92;33.63
28628;BME280;15815;46.760;19.604;2022-07-29T13:30:39;100074.41;;;32.97;33.68
28628;BME280;15815;46.760;19.604;2022-07-29T13:33:06;100078.31;;;33.00;34.26
28628;BME280;15815;46.760;19.604;2022-07-29T13:35:31;100068.25;;;33.01;33.47